Time;durP1;ratioP1;P1;durP2;ratioP2;P2;SDS_P1;SDS_P2;PMS_P1;PMS_P2;Temp;Humidity;BMP_temperature;BMP_pressure;BME280_temperature;BME280_humidity;BME280_pressure;Samples;Min_cycle;Max_cycle;Signal;HPM_P1;HPM_P2
2023/01/09 00:00:17;;;;;;;20.27;6.72;;;10.60;99.90;;;;;;5086779;28;20043;-58
2023/01/09 00:02:43;;;;;;;23.00;7.13;;;10.60;99.90;;;;;;5088242;28;20099;-58
2023/01/09 00:05:12;;;;;;;25.27;7.03;;;10.60;99.90;;;;;;5086861;28;20016;-58
2023/01/09 00:07:38;;;;;;;26.23;7.10;;;10.60;99.90;;;;;;5086767;28;20039;-58
2023/01/09 00:10:04;;;;;;;27.00;6.90;;;10.50;99.90;;;;;;5086808;28;20028;-58
2023/01/09 00:12:30;;;;;;;22.45;5.82;;;10.60;99.90;;;;;;5086795;28;20032;-59
2023/01/09 00:14:56;;;;;;;24.10;6.13;;;10.60;99.90;;;;;;5087862;28;20028;-58
2023/01/09 00:17:21;;;;;;;22.95;6.45;;;10.50;99.90;;;;;;5086618;28;20043;-59
2023/01/09 00:19:47;;;;;;;19.80;5.68;;;10.50;99.90;;;;;;5086562;28;20028;-58
2023/01/09 00:22:12;;;;;;;34.55;6.70;;;10.50;99.90;;;;;;5087922;28;20052;-58
2023/01/09 00:24:38;;;;;;;22.48;5.93;;;10.50;99.90;;;;;;5086279;28;20036;-58
2023/01/09 00:27:03;;;;;;;20.90;6.40;;;10.50;99.90;;;;;;5087538;28;20031;-58
2023/01/09 00:29:29;;;;;;;22.52;5.82;;;10.50;99.90;;;;;;5086581;28;20048;-58
2023/01/09 00:31:54;;;;;;;28.63;7.20;;;10.50;99.90;;;;;;5086277;28;20054;-58
2023/01/09 00:34:20;;;;;;;19.65;5.90;;;10.50;99.90;;;;;;5086340;28;20029;-58
2023/01/09 00:36:45;;;;;;;23.30;5.50;;;10.50;99.90;;;;;;5086279;28;20145;-58
2023/01/09 00:39:11;;;;;;;27.52;7.28;;;10.50;99.90;;;;;;5086084;28;20048;-59
2023/01/09 00:41:39;;;;;;;21.30;5.47;;;10.50;99.90;;;;;;5086005;28;20092;-59
2023/01/09 00:44:08;;;;;;;18.13;6.18;;;10.50;99.90;;;;;;5086022;28;20101;-59
2023/01/09 00:46:35;;;;;;;18.15;5.60;;;10.50;99.90;;;;;;5085925;28;20086;-59
2023/01/09 00:49:01;;;;;;;23.27;5.60;;;10.50;99.90;;;;;;5086059;28;20048;-59
2023/01/09 00:51:27;;;;;;;20.10;5.63;;;10.50;99.90;;;;;;5085947;28;20025;-59
2023/01/09 00:53:52;;;;;;;19.02;5.25;;;10.40;99.90;;;;;;5069133;28;20047;-59
2023/01/09 00:56:18;;;;;;;20.92;5.40;;;10.50;99.90;;;;;;5085928;28;20059;-59
2023/01/09 00:58:44;;;;;;;21.25;5.47;;;10.50;99.90;;;;;;5085833;28;20029;-59
2023/01/09 01:01:10;;;;;;;18.70;5.22;;;10.50;99.90;;;;;;5085676;28;20133;-58
2023/01/09 01:03:36;;;;;;;20.90;5.00;;;10.40;99.90;;;;;;5069026;28;20051;-58
2023/01/09 01:08:46;;;;;;;15.48;5.05;;;10.50;99.90;;;;;;5085810;28;20051;-59
2023/01/09 01:11:11;;;;;;;20.92;5.28;;;10.50;99.90;;;;;;5086775;28;20029;-58
2023/01/09 01:13:37;;;;;;;17.98;4.90;;;10.40;99.90;;;;;;5086998;28;20079;-58
2023/01/09 01:16:04;;;;;;;16.30;4.82;;;10.40;99.90;;;;;;5085457;28;20036;-59
2023/01/09 01:18:30;;;;;;;16.00;4.22;;;10.50;99.90;;;;;;5085460;28;20052;-59
2023/01/09 01:20:55;;;;;;;12.85;4.25;;;10.40;99.90;;;;;;5085244;28;20043;-59
2023/01/09 01:23:21;;;;;;;15.57;4.28;;;10.50;99.90;;;;;;5086570;28;20028;-59
2023/01/09 01:25:48;;;;;;;16.60;4.80;;;10.40;99.90;;;;;;5085096;28;20024;-59
2023/01/09 01:28:13;;;;;;;19.38;4.43;;;10.40;99.90;;;;;;5086648;28;20092;-59
2023/01/09 01:30:39;;;;;;;15.20;4.35;;;10.40;99.90;;;;;;5086702;28;20442;-59
2023/01/09 01:33:05;;;;;;;16.58;4.68;;;10.40;99.90;;;;;;5086379;28;20415;-59
2023/01/09 01:35:30;;;;;;;13.18;3.60;;;10.40;99.90;;;;;;5085104;28;20024;-59
2023/01/09 01:37:56;;;;;;;12.95;4.00;;;10.40;99.90;;;;;;5086367;28;20035;-59
2023/01/09 01:40:21;;;;;;;13.95;3.80;;;10.40;99.90;;;;;;5068288;28;20460;-58
2023/01/09 01:42:48;;;;;;;12.52;3.47;;;10.40;99.90;;;;;;5085179;28;20087;-58
2023/01/09 01:45:15;;;;;;;16.23;4.40;;;10.40;99.90;;;;;;5084699;28;20047;-59
2023/01/09 01:47:49;;;;;;;15.48;3.95;;;10.40;99.90;;;;;;5084555;28;20059;-59
2023/01/09 01:50:42;;;;;;;18.45;4.82;;;10.40;99.90;;;;;;5085069;28;20039;-59
2023/01/09 01:53:27;;;;;;;9.77;3.28;;;10.40;99.90;;;;;;5084570;28;20562;-59
2023/01/09 01:56:04;;;;;;;10.95;4.07;;;10.40;99.90;;;;;;5084753;28;20032;-59
2023/01/09 01:58:29;;;;;;;11.63;3.83;;;10.40;99.90;;;;;;5067802;28;20062;-59
2023/01/09 02:00:55;;;;;;;9.25;3.63;;;10.30;99.90;;;;;;5084560;28;20127;-59
2023/01/09 02:03:22;;;;;;;15.85;4.03;;;10.40;99.90;;;;;;5084576;28;20024;-59
2023/01/09 02:05:48;;;;;;;11.88;3.85;;;10.40;99.90;;;;;;5084425;28;20067;-59
2023/01/09 02:08:13;;;;;;;15.75;4.20;;;10.40;99.90;;;;;;5084346;28;20032;-59
2023/01/09 02:10:39;;;;;;;14.23;3.63;;;10.30;99.90;;;;;;5067598;28;20032;-59
2023/01/09 02:13:05;;;;;;;11.80;3.28;;;10.40;99.90;;;;;;5084329;28;20082;-58
2023/01/09 02:15:58;;;;;;;13.68;3.20;;;10.30;99.90;;;;;;5084340;28;20107;-59
2023/01/09 02:18:40;;;;;;;11.45;3.35;;;10.30;99.90;;;;;;5063950;28;20049;-59
2023/01/09 02:21:21;;;;;;;9.80;3.38;;;10.30;99.90;;;;;;5084303;28;20040;-59
2023/01/09 02:24:14;;;;;;;12.00;3.63;;;10.30;99.90;;;;;;5084471;28;20057;-59
2023/01/09 02:26:40;;;;;;;10.18;3.13;;;10.30;99.90;;;;;;5085674;28;20025;-59
2023/01/09 02:29:05;;;;;;;13.38;3.17;;;10.30;99.90;;;;;;5085586;28;20082;-59
2023/01/09 02:31:52;;;;;;;7.43;3.20;;;10.30;99.90;;;;;;5085212;28;20027;-59
2023/01/09 02:34:25;;;;;;;8.27;3.13;;;10.30;99.90;;;;;;5083821;28;20484;-59
2023/01/09 02:37:18;;;;;;;9.02;3.28;;;10.30;99.90;;;;;;5084059;28;20020;-59
2023/01/09 02:39:52;;;;;;;11.20;3.28;;;10.30;99.90;;;;;;5085554;28;20094;-60
2023/01/09 02:42:20;;;;;;;8.43;3.10;;;10.30;99.90;;;;;;5085620;28;20021;-60
2023/01/09 02:44:45;;;;;;;10.00;3.17;;;10.30;99.90;;;;;;5083703;28;20046;-60
2023/01/09 02:47:14;;;;;;;10.02;3.28;;;10.30;99.90;;;;;;5083985;28;20081;-59
2023/01/09 02:49:40;;;;;;;6.43;2.83;;;10.30;99.90;;;;;;5085162;28;20036;-59
2023/01/09 02:52:44;;;;;;;6.55;2.75;;;10.30;99.90;;;;;;5083851;28;20445;-60
2023/01/09 02:55:39;;;;;;;7.95;2.78;;;10.30;99.90;;;;;;5078452;28;20459;-59
2023/01/09 02:58:21;;;;;;;8.02;2.90;;;10.20;99.90;;;;;;5084425;28;20052;-59
2023/01/09 03:01:06;;;;;;;8.50;2.42;;;10.20;99.90;;;;;;5067324;28;20029;-60
2023/01/09 03:03:37;;;;;;;9.98;2.55;;;10.20;99.90;;;;;;5086053;28;20105;-60
2023/01/09 03:06:23;;;;;;;7.47;2.47;;;10.20;99.90;;;;;;5083646;28;20043;-60
2023/01/09 03:08:54;;;;;;;7.82;2.28;;;10.20;99.90;;;;;;5083599;28;20029;-60
2023/01/09 03:11:20;;;;;;;11.32;2.35;;;10.20;99.90;;;;;;5085024;28;20504;-59
2023/01/09 03:13:51;;;;;;;5.60;2.28;;;10.20;99.90;;;;;;5085149;28;20051;-59
2023/01/09 03:16:27;;;;;;;4.53;2.00;;;10.20;99.90;;;;;;5083800;28;20033;-59
2023/01/09 03:18:53;;;;;;;7.47;2.63;;;10.20;99.90;;;;;;5083607;28;20028;-59
2023/01/09 03:21:18;;;;;;;6.95;2.03;;;10.20;99.90;;;;;;5083359;28;20033;-59
2023/01/09 03:23:45;;;;;;;8.00;2.60;;;10.20;99.90;;;;;;5083429;28;20021;-59
2023/01/09 03:26:10;;;;;;;6.28;1.98;;;10.10;99.90;;;;;;5083434;28;20044;-59
2023/01/09 03:28:36;;;;;;;8.70;2.20;;;10.10;99.90;;;;;;5084655;28;20033;-59
2023/01/09 03:31:01;;;;;;;4.80;2.10;;;10.10;99.90;;;;;;5084639;28;20028;-59
2023/01/09 03:33:27;;;;;;;6.85;2.17;;;10.10;99.90;;;;;;5084728;28;20089;-59
2023/01/09 03:35:53;;;;;;;4.38;2.20;;;10.10;99.90;;;;;;5083275;28;20117;-59
2023/01/09 03:38:18;;;;;;;4.78;2.22;;;10.20;99.90;;;;;;5084661;28;20043;-59
2023/01/09 03:40:44;;;;;;;3.75;1.95;;;10.10;99.90;;;;;;5082803;28;20033;-59
2023/01/09 03:43:09;;;;;;;3.70;1.88;;;10.10;99.90;;;;;;5083081;28;20504;-59
2023/01/09 03:45:35;;;;;;;4.70;1.60;;;10.10;99.90;;;;;;5083015;28;20028;-59
2023/01/09 03:48:01;;;;;;;6.72;1.80;;;10.10;99.90;;;;;;5083214;28;20031;-59
2023/01/09 03:50:26;;;;;;;5.45;1.80;;;10.10;99.90;;;;;;5082985;28;20063;-59
2023/01/09 03:52:52;;;;;;;7.80;2.10;;;10.10;99.90;;;;;;5083008;28;20024;-59
2023/01/09 03:55:17;;;;;;;3.17;1.75;;;10.10;99.90;;;;;;5082917;28;20105;-59
2023/01/09 03:57:43;;;;;;;6.75;2.40;;;10.10;99.90;;;;;;5083191;28;20029;-59
2023/01/09 04:00:10;;;;;;;3.72;1.50;;;10.10;99.90;;;;;;5082986;28;20044;-60
2023/01/09 04:02:35;;;;;;;3.75;1.98;;;10.10;99.90;;;;;;5084232;28;20075;-59
2023/01/09 04:05:01;;;;;;;3.25;1.55;;;10.10;99.90;;;;;;5082737;28;20021;-59
2023/01/09 04:07:26;;;;;;;3.03;1.45;;;10.10;99.90;;;;;;5084297;28;20124;-59
2023/01/09 04:09:52;;;;;;;4.97;1.90;;;10.00;99.90;;;;;;5084169;28;20407;-59
2023/01/09 04:12:17;;;;;;;2.58;1.58;;;10.10;99.90;;;;;;5086330;28;20448;-60
2023/01/09 04:14:43;;;;;;;2.33;1.25;;;10.10;99.90;;;;;;5087913;28;20064;-60
2023/01/09 04:17:08;;;;;;;3.80;1.60;;;10.10;99.90;;;;;;5086591;28;20456;-60
2023/01/09 04:19:34;;;;;;;3.47;1.50;;;10.10;99.90;;;;;;5086565;28;20037;-60
2023/01/09 04:21:59;;;;;;;5.93;1.85;;;10.10;99.90;;;;;;5086374;28;20440;-59
2023/01/09 04:24:25;;;;;;;3.90;1.38;;;10.00;99.90;;;;;;5086428;28;20029;-59
2023/01/09 04:26:51;;;;;;;4.50;1.58;;;10.00;99.90;;;;;;5086540;28;20511;-59
2023/01/09 04:29:16;;;;;;;6.13;1.65;;;10.00;99.90;;;;;;5087637;28;20040;-60
2023/01/09 04:31:42;;;;;;;3.60;1.88;;;10.00;99.90;;;;;;5087758;28;20066;-60
2023/01/09 04:34:07;;;;;;;4.60;2.10;;;9.90;99.90;;;;;;5087504;28;20029;-60
2023/01/09 04:36:34;;;;;;;5.72;1.63;;;10.00;99.90;;;;;;5087624;28;20027;-59
2023/01/09 04:39:00;;;;;;;2.97;1.42;;;9.90;99.90;;;;;;5086097;28;20032;-59
2023/01/09 04:44:10;;;;;;;2.20;1.13;;;9.90;99.90;;;;;;5086299;28;20071;-59
2023/01/09 04:46:35;;;;;;;2.42;1.63;;;9.90;99.90;;;;;;5085964;28;20032;-59
2023/01/09 04:49:01;;;;;;;2.72;1.40;;;9.90;99.90;;;;;;5086046;28;20021;-59
2023/01/09 04:51:26;;;;;;;2.50;1.50;;;9.90;99.90;;;;;;5068949;28;20029;-59
2023/01/09 04:53:52;;;;;;;2.50;1.40;;;9.90;99.90;;;;;;5087201;28;20025;-59
2023/01/09 04:56:17;;;;;;;5.03;1.73;;;9.90;99.90;;;;;;5085576;28;20115;-59
2023/01/09 04:58:43;;;;;;;4.85;1.35;;;9.90;99.90;;;;;;5086069;28;20043;-59
2023/01/09 05:01:09;;;;;;;5.93;1.90;;;9.80;99.90;;;;;;5068870;28;20039;-59
2023/01/09 05:03:34;;;;;;;2.83;1.65;;;9.80;99.90;;;;;;5068764;28;20028;-59
2023/01/09 05:06:00;;;;;;;4.35;1.45;;;9.80;99.90;;;;;;5086918;28;20040;-59
2023/01/09 05:08:25;;;;;;;9.60;1.77;;;9.80;99.90;;;;;;5086698;28;20052;-59
2023/01/09 05:10:51;;;;;;;6.82;1.35;;;9.80;99.90;;;;;;5086781;28;20040;-59
2023/01/09 05:13:16;;;;;;;2.17;1.42;;;9.80;99.90;;;;;;5085358;28;20024;-59
2023/01/09 05:15:42;;;;;;;2.63;1.10;;;9.80;99.90;;;;;;5068360;28;20051;-59
2023/01/09 05:18:07;;;;;;;8.48;1.75;;;9.80;99.90;;;;;;5085558;28;20032;-59
2023/01/09 05:20:33;;;;;;;3.28;1.17;;;9.80;99.90;;;;;;5085376;28;20056;-59
2023/01/09 05:22:58;;;;;;;1.52;1.05;;;9.80;99.90;;;;;;5084593;28;20104;-59
2023/01/09 05:25:24;;;;;;;2.05;1.20;;;9.70;99.90;;;;;;5085189;28;20024;-59
2023/01/09 05:27:49;;;;;;;3.45;1.58;;;9.70;99.90;;;;;;5086447;28;20046;-59
2023/01/09 05:30:15;;;;;;;2.22;0.95;;;9.70;99.90;;;;;;5086505;28;20036;-59
2023/01/09 05:32:41;;;;;;;2.13;0.90;;;9.70;99.90;;;;;;5085197;28;20369;-59
2023/01/09 05:35:07;;;;;;;3.28;1.08;;;9.60;99.90;;;;;;5086498;28;20096;-59
2023/01/09 05:37:32;;;;;;;1.38;0.82;;;9.60;99.90;;;;;;5086469;28;20028;-59
2023/01/09 05:39:58;;;;;;;5.03;1.40;;;9.60;99.90;;;;;;5084708;28;20031;-59
2023/01/09 05:42:23;;;;;;;1.88;0.95;;;9.60;99.90;;;;;;5086474;28;20035;-59
2023/01/09 05:44:49;;;;;;;3.22;0.93;;;9.60;99.90;;;;;;5085804;28;20043;-59
2023/01/09 05:47:15;;;;;;;1.15;0.82;;;9.70;99.90;;;;;;5068056;28;20055;-59
2023/01/09 05:49:40;;;;;;;2.00;1.10;;;9.60;99.90;;;;;;5086118;28;20060;-59
2023/01/09 05:52:07;;;;;;;7.70;1.10;;;9.60;99.90;;;;;;5086239;28;20028;-59
2023/01/09 05:54:32;;;;;;;11.10;1.40;;;9.60;99.90;;;;;;5084822;28;20032;-59
2023/01/09 05:56:58;;;;;;;7.53;1.17;;;9.60;99.90;;;;;;5084714;28;20048;-59
2023/01/09 05:59:23;;;;;;;3.33;1.13;;;9.60;99.90;;;;;;5085731;28;20032;-59
2023/01/09 06:01:49;;;;;;;7.72;1.33;;;9.60;99.90;;;;;;5084714;28;20088;-59
2023/01/09 06:04:15;;;;;;;3.10;1.08;;;9.60;99.90;;;;;;5084471;28;20029;-59
2023/01/09 06:06:40;;;;;;;2.53;1.00;;;9.60;99.90;;;;;;5084326;28;20044;-59
2023/01/09 06:09:06;;;;;;;3.55;1.02;;;9.60;99.90;;;;;;5084631;28;20024;-59
2023/01/09 06:11:34;;;;;;;3.25;0.75;;;9.60;99.90;;;;;;5067850;28;20028;-59
2023/01/09 06:14:00;;;;;;;2.20;0.90;;;9.60;99.90;;;;;;5084462;28;20055;-59
2023/01/09 06:16:26;;;;;;;2.75;1.10;;;9.60;99.90;;;;;;5085450;28;20020;-59
2023/01/09 06:18:51;;;;;;;3.53;1.10;;;9.60;99.90;;;;;;5084256;28;20100;-59
2023/01/09 06:21:17;;;;;;;9.57;1.27;;;9.50;99.90;;;;;;5084032;28;20067;-59
2023/01/09 06:23:42;;;;;;;5.93;1.10;;;9.50;99.90;;;;;;5084216;28;20025;-59
2023/01/09 06:26:08;;;;;;;3.50;1.20;;;9.50;99.90;;;;;;5083956;28;20028;-59
2023/01/09 06:28:33;;;;;;;2.22;1.05;;;9.50;99.90;;;;;;5085340;28;20032;-59
2023/01/09 06:30:59;;;;;;;1.67;0.80;;;9.50;99.90;;;;;;5085373;28;20028;-59
2023/01/09 06:33:24;;;;;;;1.48;0.80;;;9.50;99.90;;;;;;5083997;28;20093;-59
2023/01/09 06:35:50;;;;;;;1.77;0.93;;;9.50;99.90;;;;;;5085419;28;20046;-59
2023/01/09 06:38:15;;;;;;;8.18;1.00;;;9.50;99.90;;;;;;5085218;28;20139;-58
2023/01/09 06:40:41;;;;;;;3.60;1.13;;;9.50;99.90;;;;;;5084026;28;20120;-59
2023/01/09 06:43:06;;;;;;;2.28;1.00;;;9.50;99.90;;;;;;5084936;28;20112;-59
2023/01/09 06:45:32;;;;;;;3.35;1.00;;;9.50;99.90;;;;;;5086912;28;20024;-58
2023/01/09 06:47:58;;;;;;;1.65;1.00;;;9.40;99.90;;;;;;5084616;28;20082;-59
2023/01/09 06:50:23;;;;;;;1.38;0.80;;;9.40;99.90;;;;;;5083948;28;20024;-59
2023/01/09 06:52:49;;;;;;;2.83;1.05;;;9.40;99.90;;;;;;5085432;28;20050;-59
2023/01/09 06:55:16;;;;;;;1.00;0.80;;;9.40;99.90;;;;;;5084393;28;20054;-58
2023/01/09 06:57:42;;;;;;;4.05;0.85;;;9.40;99.90;;;;;;5084783;28;20100;-58
2023/01/09 07:00:08;;;;;;;4.32;1.02;;;9.40;99.90;;;;;;5084078;28;20036;-59
2023/01/09 07:02:34;;;;;;;2.60;0.88;;;9.40;99.90;;;;;;5083534;28;20072;-58
2023/01/09 07:04:59;;;;;;;1.27;0.70;;;9.30;99.70;;;;;;5083424;28;20028;-59
2023/01/09 07:07:25;;;;;;;4.00;1.05;;;9.30;99.60;;;;;;5083847;28;20173;-58
2023/01/09 07:09:51;;;;;;;3.53;1.13;;;9.30;99.50;;;;;;5083583;28;20028;-59
2023/01/09 07:12:17;;;;;;;1.65;0.60;;;9.30;99.40;;;;;;5085102;28;20056;-59
2023/01/09 07:14:42;;;;;;;1.50;0.68;;;9.20;99.30;;;;;;5085280;28;20036;-58
2023/01/09 07:17:10;;;;;;;7.60;1.05;;;9.30;99.30;;;;;;5083721;28;20035;-59
2023/01/09 07:19:36;;;;;;;1.40;0.63;;;9.20;99.10;;;;;;5083321;28;20841;-59
2023/01/09 07:22:01;;;;;;;1.83;0.75;;;9.20;99.00;;;;;;5082816;28;20027;-59
2023/01/09 07:24:27;;;;;;;1.42;0.75;;;9.20;98.90;;;;;;5082836;28;20048;-58
2023/01/09 07:26:52;;;;;;;5.78;0.85;;;9.20;98.70;;;;;;5082861;28;20029;-59
2023/01/09 07:29:18;;;;;;;4.07;0.90;;;9.20;98.90;;;;;;5081259;28;20465;-58
2023/01/09 07:31:43;;;;;;;4.10;1.02;;;9.20;98.50;;;;;;5083215;28;20440;-59
2023/01/09 07:34:09;;;;;;;6.07;0.80;;;9.20;98.50;;;;;;5082582;28;20079;-59
2023/01/09 07:36:35;;;;;;;7.97;0.73;;;9.20;98.40;;;;;;5081179;28;20021;-59
2023/01/09 07:39:00;;;;;;;5.70;0.90;;;9.10;98.30;;;;;;5084450;28;20537;-58
2023/01/09 07:41:26;;;;;;;2.72;1.02;;;9.10;98.30;;;;;;5091502;28;20579;-59
2023/01/09 07:43:51;;;;;;;5.97;0.85;;;9.10;98.20;;;;;;5077414;28;20032;-58
2023/01/09 07:46:17;;;;;;;8.93;1.73;;;9.10;98.30;;;;;;5084793;28;20036;-58
2023/01/09 07:48:42;;;;;;;8.73;1.38;;;9.10;98.30;;;;;;5093574;28;20436;-58
2023/01/09 07:51:09;;;;;;;11.68;1.52;;;9.10;98.20;;;;;;5116330;28;20024;-59
2023/01/09 07:53:34;;;;;;;7.65;1.38;;;9.10;98.10;;;;;;5076076;28;20042;-56
2023/01/09 07:56:00;;;;;;;11.50;1.40;;;9.10;98.10;;;;;;5095093;28;20084;-58
2023/01/09 07:58:25;;;;;;;9.73;1.40;;;9.10;98.00;;;;;;5085729;28;20028;-58
2023/01/09 08:00:51;;;;;;;4.28;1.00;;;9.10;98.00;;;;;;5090515;28;20025;-59
2023/01/09 08:03:16;;;;;;;5.10;1.20;;;9.10;97.90;;;;;;5076792;28;20051;-58
2023/01/09 08:05:42;;;;;;;7.53;1.35;;;9.00;97.70;;;;;;5086327;28;20463;-59
2023/01/09 08:08:08;;;;;;;17.73;1.25;;;9.10;97.80;;;;;;5089473;28;20024;-59
2023/01/09 08:10:33;;;;;;;6.97;1.80;;;9.00;97.70;;;;;;5103308;28;20511;-58
2023/01/09 08:12:59;;;;;;;25.45;1.98;;;9.00;97.70;;;;;;5096935;28;20052;-59
2023/01/09 08:15:24;;;;;;;25.73;2.42;;;9.00;97.70;;;;;;5100704;28;20029;-58
2023/01/09 08:17:50;;;;;;;10.80;1.90;;;9.00;97.70;;;;;;5088892;28;20033;-58
2023/01/09 08:20:16;;;;;;;17.42;2.13;;;9.10;97.70;;;;;;5078760;28;20146;-59
2023/01/09 08:22:42;;;;;;;16.67;2.03;;;9.00;97.70;;;;;;5099160;28;20476;-59
2023/01/09 08:25:08;;;;;;;14.25;1.85;;;9.00;97.70;;;;;;5089331;28;20020;-59
2023/01/09 08:27:34;;;;;;;12.40;1.67;;;9.00;97.70;;;;;;5084155;28;20134;-58
2023/01/09 08:29:59;;;;;;;14.95;1.80;;;9.00;97.70;;;;;;5080037;28;20084;-58
2023/01/09 08:32:25;;;;;;;9.60;1.80;;;9.00;97.70;;;;;;5102050;28;20032;-59
2023/01/09 08:34:51;;;;;;;14.52;1.98;;;9.00;97.70;;;;;;5085387;28;20051;-59
2023/01/09 08:37:16;;;;;;;12.40;1.55;;;9.00;97.60;;;;;;5083643;28;20029;-58
2023/01/09 08:39:42;;;;;;;12.15;1.80;;;9.00;97.60;;;;;;5084082;28;20040;-59
2023/01/09 08:47:35;;;;;;;6.88;1.77;;;9.00;97.50;;;;;;5088645;28;20121;-59
2023/01/09 08:50:01;;;;;;;9.48;1.42;;;8.90;97.50;;;;;;5103486;28;20024;-58
2023/01/09 08:52:29;;;;;;;7.47;1.60;;;8.90;97.50;;;;;;5105983;28;20024;-58
2023/01/09 08:54:55;;;;;;;7.32;1.45;;;8.90;97.50;;;;;;5104614;28;20032;-58
2023/01/09 08:57:20;;;;;;;6.15;1.33;;;8.90;97.40;;;;;;5104676;28;20039;-58
2023/01/09 08:59:46;;;;;;;5.70;1.42;;;8.90;97.40;;;;;;5107206;28;20032;-59
2023/01/09 09:02:12;;;;;;;4.78;1.20;;;8.90;97.40;;;;;;5105654;28;20035;-58
2023/01/09 09:04:37;;;;;;;3.50;1.20;;;8.90;97.40;;;;;;5103963;28;20024;-59
2023/01/09 09:07:03;;;;;;;9.20;1.70;;;8.90;97.30;;;;;;5105650;28;20032;-58
2023/01/09 09:09:28;;;;;;;9.60;1.45;;;8.90;97.30;;;;;;5105765;28;20056;-58
2023/01/09 09:11:54;;;;;;;8.55;1.33;;;8.90;97.30;;;;;;5105308;28;20325;-58
2023/01/09 09:17:03;;;;;;;17.45;2.63;;;9.00;97.20;;;;;;5105832;28;20038;-58
2023/01/09 09:19:29;;;;;;;20.55;1.85;;;9.00;97.20;;;;;;5105639;28;20088;-59
2023/01/09 09:21:54;;;;;;;10.38;2.20;;;8.90;97.10;;;;;;5099437;28;20041;-59
2023/01/09 09:24:20;;;;;;;16.23;2.17;;;8.90;97.20;;;;;;5088689;28;20016;-59
2023/01/09 09:26:45;;;;;;;14.05;3.00;;;8.90;97.10;;;;;;5105344;28;20060;-58
2023/01/09 09:29:11;;;;;;;12.57;2.28;;;8.90;97.10;;;;;;5105151;28;20028;-58
2023/01/09 09:31:39;;;;;;;12.23;2.78;;;9.00;97.10;;;;;;5103711;28;20028;-59
2023/01/09 09:34:05;;;;;;;18.63;2.17;;;9.00;97.00;;;;;;5088858;28;20040;-59
2023/01/09 09:36:31;;;;;;;13.70;2.13;;;9.00;96.90;;;;;;5088179;28;20039;-58
2023/01/09 09:38:56;;;;;;;19.60;1.90;;;9.00;96.90;;;;;;5080196;28;20469;-58
2023/01/09 09:44:56;;;;;;;31.00;3.58;;;9.00;96.50;;;;;;5106276;28;20070;-58
2023/01/09 09:47:40;;;;;;;23.60;3.15;;;9.00;96.50;;;;;;5104031;28;20092;-59
2023/01/09 09:50:27;;;;;;;30.98;2.97;;;9.00;96.60;;;;;;5068281;28;20039;-59
2023/01/09 09:53:23;;;;;;;75.32;7.20;;;9.00;96.50;;;;;;5065834;28;20037;-59
2023/01/09 09:55:48;;;;;;;63.60;8.13;;;9.00;96.50;;;;;;5064303;28;20033;-59
2023/01/09 09:58:28;;;;;;;44.75;5.18;;;9.00;96.50;;;;;;5089500;28;20036;-59
2023/01/09 10:00:53;;;;;;;39.40;4.22;;;9.00;96.40;;;;;;5104560;28;20036;-59
2023/01/09 10:03:27;;;;;;;24.70;3.80;;;9.00;96.20;;;;;;5088036;28;20028;-59
2023/01/09 10:05:52;;;;;;;28.23;3.45;;;9.00;96.30;;;;;;5102738;28;20020;-58
2023/01/09 10:08:45;;;;;;;32.22;4.25;;;9.00;96.30;;;;;;5087177;28;20486;-59
2023/01/09 10:11:26;;;;;;;42.80;4.45;;;9.00;96.30;;;;;;5104188;28;20510;-58
2023/01/09 10:14:04;;;;;;;58.00;7.75;;;9.00;96.10;;;;;;5087772;28;20036;-59
2023/01/09 10:16:48;;;;;;;57.67;6.97;;;9.00;96.20;;;;;;5068667;28;20024;-58
2023/01/09 10:19:29;;;;;;;84.15;7.25;;;9.00;96.40;;;;;;5083270;28;20064;-58
2023/01/09 10:22:07;;;;;;;40.55;6.68;;;9.00;96.40;;;;;;5085514;28;20093;-58
2023/01/09 10:24:45;;;;;;;56.47;6.90;;;9.00;96.30;;;;;;5087516;28;20046;-59
2023/01/09 10:27:40;;;;;;;82.85;9.75;;;9.10;96.40;;;;;;5083444;28;20021;-58
2023/01/09 10:30:29;;;;;;;86.55;8.23;;;9.10;96.40;;;;;;5084409;28;20033;-58
2023/01/09 10:33:17;;;;;;;62.35;7.45;;;9.10;96.30;;;;;;5082722;28;20071;-58
2023/01/09 10:36:23;;;;;;;79.35;8.35;;;9.10;96.30;;;;;;5077163;28;20073;-58
2023/01/09 10:38:50;;;;;;;72.40;8.70;;;9.10;96.20;;;;;;5083666;28;20059;-58
2023/01/09 10:41:24;;;;;;;118.47;13.15;;;9.10;96.10;;;;;;5062563;28;20037;-58
2023/01/09 10:44:05;;;;;;;72.95;8.10;;;9.10;96.30;;;;;;5079930;28;20028;-58
2023/01/09 10:46:37;;;;;;;93.45;10.77;;;9.10;96.40;;;;;;5078230;28;20020;-58
2023/01/09 10:49:06;;;;;;;71.70;8.57;;;9.20;96.40;;;;;;5091469;28;20028;-58
2023/01/09 10:51:38;;;;;;;88.00;8.30;;;9.10;96.40;;;;;;5083921;28;20033;-58
2023/01/09 10:54:04;;;;;;;78.85;8.88;;;9.20;96.70;;;;;;5064056;28;20032;-58
2023/01/09 10:56:35;;;;;;;78.25;8.13;;;9.20;96.20;;;;;;5070157;28;20041;-58
2023/01/09 10:59:00;;;;;;;67.97;7.85;;;9.20;96.30;;;;;;5109843;27;20037;-59
2023/01/09 11:01:33;;;;;;;91.18;10.10;;;9.20;96.40;;;;;;5098138;28;20161;-58
2023/01/09 11:04:01;;;;;;;87.85;9.32;;;9.20;96.30;;;;;;5081506;28;20028;-58
2023/01/09 11:06:36;;;;;;;83.82;9.63;;;9.20;96.30;;;;;;5086982;28;20028;-58
2023/01/09 11:09:01;;;;;;;109.47;10.27;;;9.30;96.20;;;;;;5094255;28;20068;-59
2023/01/09 11:11:32;;;;;;;152.13;14.18;;;9.30;96.10;;;;;;5089390;28;20036;-58
2023/01/09 11:14:29;;;;;;;69.47;7.97;;;9.30;96.10;;;;;;5085199;28;20039;-58
2023/01/09 11:17:00;;;;;;;73.68;9.00;;;9.30;96.00;;;;;;5101233;28;20032;-58
2023/01/09 11:19:25;;;;;;;69.00;8.18;;;9.30;96.00;;;;;;5102365;28;20028;-59
2023/01/09 11:22:14;;;;;;;66.03;7.13;;;9.30;95.90;;;;;;5092909;28;20063;-58
2023/01/09 11:24:39;;;;;;;70.80;8.20;;;9.30;95.70;;;;;;5082426;28;20089;-58
2023/01/09 11:27:11;;;;;;;71.60;9.07;;;9.30;95.70;;;;;;5081207;28;20032;-58
2023/01/09 11:29:37;;;;;;;92.47;7.75;;;9.40;95.70;;;;;;5082312;28;20029;-58
2023/01/09 11:32:03;;;;;;;76.95;8.55;;;9.30;95.60;;;;;;5080797;28;20039;-59
2023/01/09 11:34:32;;;;;;;56.25;8.10;;;9.30;95.50;;;;;;5081607;28;20077;-58
2023/01/09 11:37:24;;;;;;;64.53;6.55;;;9.40;95.50;;;;;;5081124;28;20047;-58
2023/01/09 11:39:49;;;;;;;76.03;8.77;;;9.30;95.20;;;;;;5080817;28;20105;-58
2023/01/09 11:42:49;;;;;;;80.80;7.47;;;9.30;95.20;;;;;;5063973;28;20082;-58
2023/01/09 11:45:17;;;;;;;72.43;8.50;;;9.30;95.00;;;;;;5080386;28;20067;-58
2023/01/09 11:47:43;;;;;;;65.45;7.10;;;9.30;94.90;;;;;;5082616;28;20128;-59
2023/01/09 11:50:22;;;;;;;62.00;6.75;;;9.30;94.80;;;;;;5082497;28;20048;-58
2023/01/09 11:53:17;;;;;;;78.72;9.07;;;9.30;94.70;;;;;;5081872;28;20060;-59
2023/01/09 11:55:43;;;;;;;61.50;6.85;;;9.30;95.00;;;;;;5081203;28;20024;-58
2023/01/09 11:58:18;;;;;;;58.45;9.73;;;9.30;95.00;;;;;;5082081;28;20044;-59
2023/01/09 12:01:05;;;;;;;59.27;8.27;;;9.30;95.00;;;;;;5083653;28;20083;-58
2023/01/09 12:03:52;;;;;;;91.15;8.88;;;9.30;95.10;;;;;;5082814;28;20086;-59
2023/01/09 12:06:40;;;;;;;86.35;8.85;;;9.30;95.20;;;;;;5083678;28;20035;-59
2023/01/09 12:09:06;;;;;;;81.28;9.35;;;9.30;95.30;;;;;;5082519;28;20111;-59
2023/01/09 12:11:54;;;;;;;90.82;8.98;;;9.30;95.40;;;;;;5081836;28;20028;-58
2023/01/09 12:14:54;;;;;;;76.25;9.82;;;9.30;95.50;;;;;;5082743;28;20029;-59
2023/01/09 12:17:33;;;;;;;117.90;13.23;;;9.30;95.80;;;;;;5081952;28;20131;-59
2023/01/09 12:20:26;;;;;;;106.38;14.95;;;9.30;96.00;;;;;;5091032;28;20044;-58
2023/01/09 12:23:12;;;;;;;140.27;14.88;;;9.30;96.00;;;;;;5072370;28;20057;-59
2023/01/09 12:25:43;;;;;;;;;;;9.40;96.20;;;;;;5078540;28;20044;-59
2023/01/09 12:28:26;;;;;;;111.38;11.65;;;9.40;96.10;;;;;;5060198;28;19919;-59
2023/01/09 12:31:06;;;;;;;121.82;13.65;;;9.40;96.20;;;;;;5089104;28;20449;-59
2023/01/09 12:34:11;;;;;;;102.22;13.10;;;9.40;96.20;;;;;;5085803;28;20048;-59
2023/01/09 12:36:52;;;;;;;133.00;15.52;;;9.40;96.20;;;;;;5099767;28;20052;-59
2023/01/09 12:39:29;;;;;;;101.85;10.48;;;9.40;96.10;;;;;;5101568;28;20029;-59
2023/01/09 12:42:00;;;;;;;71.75;10.18;;;9.30;96.00;;;;;;5087317;28;20033;-59
2023/01/09 12:44:50;;;;;;;94.22;10.77;;;9.30;96.00;;;;;;5086718;28;20123;-59
2023/01/09 12:47:21;;;;;;;113.63;12.63;;;9.30;96.00;;;;;;5085459;28;20025;-59
2023/01/09 12:50:13;;;;;;;81.18;12.25;;;9.30;96.00;;;;;;5087102;28;20024;-58
2023/01/09 12:52:48;;;;;;;98.72;10.38;;;9.30;96.00;;;;;;5086301;28;20032;-59
2023/01/09 12:55:16;;;;;;;101.57;12.00;;;9.30;96.00;;;;;;5084705;28;20032;-58
2023/01/09 12:57:50;;;;;;;95.53;12.68;;;9.30;96.10;;;;;;5084424;28;20115;-59
2023/01/09 13:00:34;;;;;;;120.85;13.48;;;9.30;96.20;;;;;;5067961;28;20074;-58
2023/01/09 13:03:16;;;;;;;93.90;11.52;;;9.30;96.20;;;;;;5084556;28;20037;-59
2023/01/09 13:05:47;;;;;;;121.82;13.50;;;9.30;96.20;;;;;;5079015;28;20021;-59
2023/01/09 13:08:36;;;;;;;157.25;15.70;;;9.30;96.10;;;;;;5085499;28;20028;-59
2023/01/09 13:11:36;;;;;;;122.72;13.05;;;9.30;96.30;;;;;;5084603;28;20044;-59
2023/01/09 13:14:05;;;;;;;118.53;14.20;;;9.30;96.20;;;;;;5076742;28;20036;-59
2023/01/09 13:16:34;;;;;;;93.82;10.73;;;9.20;96.30;;;;;;5116537;28;20024;-58
2023/01/09 13:19:18;;;;;;;59.75;9.40;;;9.20;96.20;;;;;;5101354;28;20128;-59